createdAt,value
2019-04-13T00:00:26.529Z,18.72
2019-04-13T00:01:26.513Z,18.72
2019-04-13T00:02:26.641Z,18.71
2019-04-13T00:03:26.928Z,18.7
2019-04-13T00:04:30.141Z,18.69
2019-04-13T00:05:26.626Z,18.72
2019-04-13T00:06:26.570Z,18.69
2019-04-13T00:07:26.599Z,18.7
2019-04-13T00:08:26.723Z,18.71
2019-04-13T00:09:26.797Z,18.71
2019-04-13T00:10:26.679Z,18.69
2019-04-13T00:11:26.701Z,18.69
2019-04-13T00:12:26.601Z,18.69
2019-04-13T00:13:28.099Z,18.68
2019-04-13T00:14:26.717Z,18.68
2019-04-13T00:15:26.836Z,18.68
2019-04-13T00:16:26.490Z,18.68
2019-04-13T00:17:26.887Z,18.7
2019-04-13T00:18:26.553Z,18.67
2019-04-13T00:19:26.477Z,18.66
2019-04-13T00:20:26.663Z,18.69
2019-04-13T00:21:26.511Z,18.65
2019-04-13T00:22:26.716Z,18.68
2019-04-13T00:23:26.609Z,18.68
2019-04-13T00:24:26.521Z,18.66
2019-04-13T00:25:26.717Z,18.66
2019-04-13T00:26:26.642Z,18.66
2019-04-13T00:27:26.605Z,18.66
2019-04-13T00:28:26.592Z,18.65
2019-04-13T00:29:26.690Z,18.66
2019-04-13T00:30:26.771Z,18.66
2019-04-13T00:31:26.671Z,18.63
2019-04-13T00:32:26.825Z,18.64
2019-04-13T00:33:26.707Z,18.64
2019-04-13T00:34:27.171Z,18.63
2019-04-13T00:35:27.287Z,18.64
2019-04-13T00:36:26.430Z,18.65
2019-04-13T00:37:26.504Z,18.63
2019-04-13T00:38:26.516Z,18.65
2019-04-13T00:39:26.526Z,18.64
2019-04-13T00:40:26.532Z,18.63
2019-04-13T00:41:26.597Z,18.62
2019-04-13T00:42:26.551Z,18.63
2019-04-13T00:43:26.619Z,18.63
2019-04-13T00:44:26.604Z,18.62
2019-04-13T00:45:26.571Z,18.63
2019-04-13T00:46:26.621Z,18.62
2019-04-13T00:47:26.592Z,18.62
2019-04-13T00:48:26.532Z,18.61
2019-04-13T00:49:26.611Z,18.62
2019-04-13T00:50:26.785Z,18.58
2019-04-13T00:51:26.626Z,18.61
2019-04-13T00:52:26.669Z,18.62
2019-04-13T00:53:26.515Z,18.61
2019-04-13T00:54:26.622Z,18.59
2019-04-13T00:55:26.471Z,18.63
2019-04-13T00:56:26.640Z,18.59
2019-04-13T00:57:26.514Z,18.58
2019-04-13T00:58:28.705Z,18.57
2019-04-13T00:59:26.602Z,18.59
2019-04-13T01:00:26.493Z,18.59
2019-04-13T01:01:26.897Z,18.61
2019-04-13T01:02:26.624Z,18.62
2019-04-13T01:03:26.589Z,18.58
2019-04-13T01:04:26.510Z,18.58
2019-04-13T01:05:26.648Z,18.58
2019-04-13T01:06:26.664Z,18.57
2019-04-13T01:07:26.741Z,18.57
2019-04-13T01:08:26.822Z,18.57
2019-04-13T01:09:26.648Z,18.55
2019-04-13T01:10:26.725Z,18.57
2019-04-13T01:11:26.806Z,18.56
2019-04-13T01:12:26.749Z,18.57
2019-04-13T01:13:26.491Z,18.55
2019-04-13T01:14:26.524Z,18.57
2019-04-13T01:15:26.602Z,18.57
2019-04-13T01:16:26.503Z,18.55
2019-04-13T01:17:28.450Z,18.57
2019-04-13T01:18:26.538Z,18.54
2019-04-13T01:19:26.604Z,18.55
2019-04-13T01:20:26.610Z,18.56
2019-04-13T01:21:26.579Z,18.55
2019-04-13T01:22:26.591Z,18.55
2019-04-13T01:23:26.599Z,18.57
2019-04-13T01:24:26.598Z,18.53
2019-04-13T01:25:26.612Z,18.55
2019-04-13T01:26:26.675Z,18.54
2019-04-13T01:27:26.649Z,18.54
2019-04-13T01:28:26.861Z,18.55
2019-04-13T01:29:26.730Z,18.56
2019-04-13T01:30:26.440Z,18.54
2019-04-13T01:31:26.496Z,18.53
2019-04-13T01:32:26.544Z,18.53
2019-04-13T01:33:26.623Z,18.55
2019-04-13T01:34:26.516Z,18.53
2019-04-13T01:35:26.574Z,18.55
2019-04-13T01:36:26.571Z,18.55
2019-04-13T01:37:26.664Z,18.53
2019-04-13T01:38:26.667Z,18.52
2019-04-13T01:39:26.917Z,18.53
2019-04-13T01:40:26.385Z,18.51
2019-04-13T01:41:26.728Z,18.53
2019-04-13T01:42:26.660Z,18.49
2019-04-13T01:43:26.747Z,18.5
2019-04-13T01:44:26.656Z,18.51
2019-04-13T01:45:26.688Z,18.51
2019-04-13T01:46:26.653Z,18.52
2019-04-13T01:47:26.907Z,18.52
2019-04-13T01:48:26.439Z,18.49
2019-04-13T01:49:26.468Z,18.53
2019-04-13T01:50:26.500Z,18.5
2019-04-13T01:51:26.434Z,18.5
2019-04-13T01:52:26.557Z,18.51
2019-04-13T01:53:26.572Z,18.51
2019-04-13T01:54:26.499Z,18.5
2019-04-13T01:55:26.520Z,18.5
2019-04-13T01:56:26.622Z,18.49
2019-04-13T01:57:26.510Z,18.5
2019-04-13T01:58:26.564Z,18.49
2019-04-13T01:59:26.663Z,18.48
2019-04-13T02:00:26.596Z,18.5
2019-04-13T02:01:26.792Z,18.49
2019-04-13T02:02:27.718Z,18.51
2019-04-13T02:03:26.599Z,18.48
2019-04-13T02:04:26.645Z,18.49
2019-04-13T02:05:26.690Z,18.5
2019-04-13T02:06:26.426Z,18.5
2019-04-13T02:07:26.460Z,18.49
2019-04-13T02:08:26.549Z,18.49
2019-04-13T02:09:26.416Z,18.49
2019-04-13T02:10:26.498Z,18.46
2019-04-13T02:11:26.586Z,18.48
2019-04-13T02:12:26.666Z,18.48
2019-04-13T02:13:26.558Z,18.48
2019-04-13T02:14:26.639Z,18.48
2019-04-13T02:15:26.562Z,18.48
2019-04-13T02:16:26.632Z,18.46
2019-04-13T02:17:26.650Z,18.48
2019-04-13T02:18:26.632Z,18.47
2019-04-13T02:19:26.627Z,18.47
2019-04-13T02:20:26.699Z,18.46
2019-04-13T02:21:26.735Z,18.47
2019-04-13T02:22:26.658Z,18.43
2019-04-13T02:23:26.700Z,18.44
2019-04-13T02:24:26.705Z,18.47
2019-04-13T02:25:26.685Z,18.44
2019-04-13T02:26:26.612Z,18.46
2019-04-13T02:27:26.522Z,18.44
2019-04-13T02:28:26.425Z,18.44
2019-04-13T02:29:26.548Z,18.46
2019-04-13T02:30:26.545Z,18.44
2019-04-13T02:31:26.531Z,18.44
2019-04-13T02:32:26.566Z,18.44
2019-04-13T02:33:26.509Z,18.44
2019-04-13T02:34:26.646Z,18.41
2019-04-13T02:35:37.227Z,18.43
2019-04-13T02:36:26.609Z,18.41
2019-04-13T02:37:26.563Z,18.42
2019-04-13T02:38:26.857Z,18.43
2019-04-13T02:39:26.618Z,18.41
2019-04-13T02:40:27.847Z,18.44
2019-04-13T02:41:26.730Z,18.44
2019-04-13T02:42:26.653Z,18.42
2019-04-13T02:43:26.730Z,18.42
2019-04-13T02:44:26.540Z,18.46
2019-04-13T02:45:26.454Z,18.4
2019-04-13T02:46:26.477Z,18.43
2019-04-13T02:47:26.585Z,18.43
2019-04-13T02:48:26.573Z,18.42
2019-04-13T02:49:26.648Z,18.43
2019-04-13T02:50:26.607Z,18.42
2019-04-13T02:51:26.638Z,18.4
2019-04-13T02:52:26.613Z,18.42
2019-04-13T02:53:26.781Z,18.39
2019-04-13T02:54:26.638Z,18.42
2019-04-13T02:55:26.562Z,18.41
2019-04-13T02:56:26.589Z,18.41
2019-04-13T02:57:26.692Z,18.41
2019-04-13T02:58:26.615Z,18.4
2019-04-13T02:59:26.404Z,18.39
2019-04-13T03:00:26.777Z,18.41
2019-04-13T03:01:26.789Z,18.41
2019-04-13T03:02:26.686Z,18.38
2019-04-13T03:03:26.562Z,18.41
2019-04-13T03:04:26.402Z,18.4
2019-04-13T03:05:28.352Z,18.41
2019-04-13T03:06:26.454Z,18.4
2019-04-13T03:07:28.958Z,18.39
2019-04-13T03:08:26.681Z,18.39
2019-04-13T03:09:26.631Z,18.41
2019-04-13T03:10:26.527Z,18.4
2019-04-13T03:11:26.424Z,18.38
2019-04-13T03:12:26.625Z,18.37
2019-04-13T03:13:26.893Z,18.37
2019-04-13T03:14:26.579Z,18.38
2019-04-13T03:15:26.529Z,18.37
2019-04-13T03:16:26.566Z,18.36
2019-04-13T03:17:26.695Z,18.37
2019-04-13T03:18:26.683Z,18.37
2019-04-13T03:19:26.811Z,18.37
2019-04-13T03:20:26.641Z,18.39
2019-04-13T03:21:26.431Z,18.36
2019-04-13T03:22:26.567Z,18.37
2019-04-13T03:23:26.476Z,18.35
2019-04-13T03:24:26.570Z,18.36
2019-04-13T03:25:26.436Z,18.35
2019-04-13T03:26:26.609Z,18.36
2019-04-13T03:27:27.051Z,18.36
2019-04-13T03:28:26.782Z,18.34
2019-04-13T03:29:26.627Z,18.37
2019-04-13T03:30:26.763Z,18.36
2019-04-13T03:31:26.614Z,18.37
2019-04-13T03:32:26.650Z,18.35
2019-04-13T03:33:26.597Z,18.35
2019-04-13T03:34:26.697Z,18.34
2019-04-13T03:35:26.769Z,18.37
2019-04-13T03:36:26.643Z,18.36
2019-04-13T03:37:26.640Z,18.34
2019-04-13T03:38:26.804Z,18.36
2019-04-13T03:39:26.815Z,18.35
2019-04-13T03:40:26.396Z,18.34
2019-04-13T03:41:26.431Z,18.35
2019-04-13T03:42:26.490Z,18.34
2019-04-13T03:43:26.538Z,18.35
2019-04-13T03:44:26.537Z,18.34
2019-04-13T03:45:26.482Z,18.34
2019-04-13T03:46:26.503Z,18.36
2019-04-13T03:47:26.645Z,18.35
2019-04-13T03:48:26.603Z,18.37
2019-04-13T03:49:26.490Z,18.36
2019-04-13T03:50:26.645Z,18.37
2019-04-13T03:51:26.601Z,18.4
2019-04-13T03:52:26.594Z,18.41
2019-04-13T03:53:26.638Z,18.41
2019-04-13T03:54:26.632Z,18.42
2019-04-13T03:55:26.674Z,18.44
2019-04-13T03:56:26.661Z,18.43
2019-04-13T03:57:26.615Z,18.46
2019-04-13T03:58:26.455Z,18.44
2019-04-13T03:59:26.521Z,18.48
2019-04-13T04:00:26.471Z,18.49
2019-04-13T04:01:26.439Z,18.49
2019-04-13T04:02:26.471Z,18.51
2019-04-13T04:03:26.545Z,18.53
2019-04-13T04:04:26.588Z,18.54
2019-04-13T04:05:26.543Z,18.55
2019-04-13T04:06:26.529Z,18.59
2019-04-13T04:07:26.541Z,18.61
2019-04-13T04:08:26.665Z,18.62
2019-04-13T04:09:26.879Z,18.64
2019-04-13T04:10:27.051Z,18.65
2019-04-13T04:11:26.591Z,18.66
2019-04-13T04:12:26.624Z,18.67
2019-04-13T04:13:26.629Z,18.7
2019-04-13T04:14:26.695Z,18.7
2019-04-13T04:15:26.419Z,18.76
2019-04-13T04:16:26.634Z,18.76
2019-04-13T04:17:26.416Z,18.76
2019-04-13T04:18:26.443Z,18.79
2019-04-13T04:19:26.439Z,18.81
2019-04-13T04:20:26.436Z,18.82
2019-04-13T04:21:26.630Z,18.82
2019-04-13T04:22:26.485Z,18.84
2019-04-13T04:23:26.618Z,18.84
2019-04-13T04:24:26.469Z,18.87
2019-04-13T04:25:26.467Z,18.91
2019-04-13T04:26:26.527Z,18.92
2019-04-13T04:27:26.452Z,18.94
2019-04-13T04:28:26.566Z,18.95
2019-04-13T04:29:26.573Z,18.95
2019-04-13T04:30:26.586Z,18.97
2019-04-13T04:31:26.577Z,18.98
2019-04-13T04:32:26.616Z,19
2019-04-13T04:33:26.641Z,18.98
2019-04-13T04:34:26.777Z,19.03
2019-04-13T04:35:26.450Z,19.05
2019-04-13T04:36:26.591Z,19.03
2019-04-13T04:37:26.448Z,19.06
2019-04-13T04:38:26.589Z,19.08
2019-04-13T04:39:26.591Z,19.08
2019-04-13T04:40:26.441Z,19.09
2019-04-13T04:41:26.509Z,19.11
2019-04-13T04:42:26.513Z,19.12
2019-04-13T04:43:26.520Z,19.13
2019-04-13T04:44:26.611Z,19.16
2019-04-13T04:45:26.490Z,19.17
2019-04-13T04:46:26.492Z,19.17
2019-04-13T04:47:26.539Z,19.17
2019-04-13T04:48:26.579Z,19.2
2019-04-13T04:49:26.608Z,19.21
2019-04-13T04:50:26.705Z,19.23
2019-04-13T04:51:26.687Z,19.23
2019-04-13T04:52:27.147Z,19.25
2019-04-13T04:53:26.894Z,19.28
2019-04-13T04:54:26.635Z,19.29
2019-04-13T04:55:26.594Z,19.28
2019-04-13T04:56:26.598Z,19.29
2019-04-13T04:57:26.435Z,19.29
2019-04-13T04:58:26.547Z,19.32
2019-04-13T04:59:26.530Z,19.33
2019-04-13T05:00:26.439Z,19.35
2019-04-13T05:01:26.447Z,19.35
2019-04-13T05:02:26.612Z,19.36
2019-04-13T05:03:26.407Z,19.38
2019-04-13T05:04:26.509Z,19.39
2019-04-13T05:05:26.863Z,19.39
2019-04-13T05:06:36.468Z,19.41
2019-04-13T05:07:26.575Z,19.42
2019-04-13T05:08:26.582Z,19.43
2019-04-13T05:09:26.721Z,19.43
2019-04-13T05:10:26.600Z,19.45
2019-04-13T05:11:26.618Z,19.46
2019-04-13T05:12:26.354Z,19.47
2019-04-13T05:13:26.519Z,19.47
2019-04-13T05:14:26.472Z,19.51
2019-04-13T05:15:26.383Z,19.5
2019-04-13T05:16:26.434Z,19.52
2019-04-13T05:17:26.546Z,19.53
2019-04-13T05:18:26.420Z,19.55
2019-04-13T05:19:26.530Z,19.56
2019-04-13T05:20:29.627Z,19.56
2019-04-13T05:21:26.538Z,19.6
2019-04-13T05:22:27.260Z,19.58
2019-04-13T05:23:26.560Z,19.6
2019-04-13T05:24:26.640Z,19.59
2019-04-13T05:25:26.573Z,19.6
2019-04-13T05:26:26.735Z,19.61
2019-04-13T05:27:26.542Z,19.63
2019-04-13T05:28:26.607Z,19.65
2019-04-13T05:29:26.643Z,19.67
2019-04-13T05:30:26.345Z,19.65
2019-04-13T05:31:26.366Z,19.67
2019-04-13T05:32:26.416Z,19.68
2019-04-13T05:33:26.464Z,19.71
2019-04-13T05:34:26.411Z,19.71
2019-04-13T05:35:26.689Z,19.71
2019-04-13T05:36:26.444Z,19.74
2019-04-13T05:37:26.451Z,19.75
2019-04-13T05:38:26.556Z,19.74
2019-04-13T05:39:29.375Z,19.75
2019-04-13T05:40:26.540Z,19.76
2019-04-13T05:41:26.551Z,19.77
2019-04-13T05:42:26.480Z,19.79
2019-04-13T05:43:26.497Z,19.8
2019-04-13T05:44:26.526Z,19.82
2019-04-13T05:45:26.543Z,19.82
2019-04-13T05:46:26.651Z,19.82
2019-04-13T05:47:26.550Z,19.83
2019-04-13T05:48:26.740Z,19.85
2019-04-13T05:49:26.491Z,19.85
2019-04-13T05:50:26.494Z,19.85
2019-04-13T05:51:34.046Z,19.86
2019-04-13T05:52:26.726Z,19.86
2019-04-13T05:53:26.541Z,19.89
2019-04-13T05:54:26.407Z,19.89
2019-04-13T05:55:26.582Z,19.89
2019-04-13T05:56:26.503Z,19.89
2019-04-13T05:57:26.563Z,19.89
2019-04-13T05:58:26.486Z,19.91
2019-04-13T05:59:26.535Z,19.94
2019-04-13T06:00:26.511Z,19.9
2019-04-13T06:01:26.525Z,19.91
2019-04-13T06:02:26.573Z,19.91
2019-04-13T06:03:26.566Z,19.96
2019-04-13T06:04:26.557Z,19.94
2019-04-13T06:05:26.744Z,19.94
2019-04-13T06:06:26.670Z,19.96
2019-04-13T06:07:26.347Z,19.97
2019-04-13T06:08:26.373Z,19.95
2019-04-13T06:09:27.261Z,19.96
2019-04-13T06:10:26.425Z,19.98
2019-04-13T06:11:26.431Z,19.96
2019-04-13T06:12:26.416Z,19.97
2019-04-13T06:13:26.422Z,19.99
2019-04-13T06:14:31.359Z,19.99
2019-04-13T06:15:26.437Z,20
2019-04-13T06:16:26.445Z,19.96
2019-04-13T06:17:31.280Z,19.99
2019-04-13T06:18:26.426Z,20.01
2019-04-13T06:19:26.535Z,19.99
2019-04-13T06:20:26.552Z,19.99
2019-04-13T06:21:26.599Z,20.01
2019-04-13T06:22:27.751Z,20.01
2019-04-13T06:23:26.631Z,19.99
2019-04-13T06:24:26.691Z,19.99
2019-04-13T06:25:31.171Z,20.02
2019-04-13T06:26:26.356Z,19.99
2019-04-13T06:27:26.411Z,20
2019-04-13T06:28:26.367Z,20
2019-04-13T06:29:26.584Z,20.01
2019-04-13T06:30:26.404Z,20.01
2019-04-13T06:31:26.431Z,20
2019-04-13T06:32:26.622Z,20.01
2019-04-13T06:33:26.517Z,20.01
2019-04-13T06:34:26.609Z,20.01
2019-04-13T06:35:26.934Z,20.02
2019-04-13T06:36:27.494Z,20.01
2019-04-13T06:37:26.558Z,20.01
2019-04-13T06:38:26.858Z,20.01
2019-04-13T06:39:26.981Z,20.01
2019-04-13T06:40:26.636Z,20.02
2019-04-13T06:41:26.652Z,20.04
2019-04-13T06:42:26.852Z,20.03
2019-04-13T06:43:27.509Z,20.03
2019-04-13T06:44:26.386Z,20.03
2019-04-13T06:45:26.341Z,20.03
2019-04-13T06:46:26.404Z,20.04
2019-04-13T06:47:26.336Z,20.04
2019-04-13T06:48:26.445Z,20.05
2019-04-13T06:49:26.421Z,20.05
2019-04-13T06:50:26.411Z,20.07
2019-04-13T06:51:26.588Z,20.06
2019-04-13T06:52:26.411Z,20.09
2019-04-13T06:53:26.424Z,20.07
2019-04-13T06:54:26.550Z,20.11
2019-04-13T06:55:26.610Z,20.1
2019-04-13T06:56:26.496Z,20.09
2019-04-13T06:57:29.353Z,20.11
2019-04-13T06:58:26.635Z,20.1
2019-04-13T06:59:26.650Z,20.11
2019-04-13T07:00:26.603Z,20.12
2019-04-13T07:01:26.682Z,20.13
2019-04-13T07:02:26.395Z,20.12
2019-04-13T07:03:26.941Z,20.14
2019-04-13T07:04:26.368Z,20.12
2019-04-13T07:05:29.066Z,20.14
2019-04-13T07:06:32.263Z,20.14
2019-04-13T07:07:26.523Z,20.16
2019-04-13T07:08:39.010Z,20.15
2019-04-13T07:09:40.898Z,20.15
2019-04-13T07:10:50.609Z,20.15
2019-04-13T07:11:26.478Z,20.14
2019-04-13T07:12:32.098Z,20.16
2019-04-13T07:13:26.589Z,20.16
2019-04-13T07:14:26.703Z,20.17
2019-04-13T07:15:46.858Z,20.17
2019-04-13T07:16:26.531Z,20.2
2019-04-13T07:17:26.550Z,20.2
2019-04-13T07:18:26.533Z,20.21
2019-04-13T07:19:26.567Z,20.21
2019-04-13T07:20:26.356Z,20.22
2019-04-13T07:21:26.334Z,20.22
2019-04-13T07:22:26.831Z,20.24
2019-04-13T07:23:26.649Z,20.24
2019-04-13T07:24:29.717Z,20.26
2019-04-13T07:25:26.355Z,20.24
2019-04-13T07:26:26.460Z,20.26
2019-04-13T07:27:26.358Z,20.25
2019-04-13T07:28:26.417Z,20.27
2019-04-13T07:29:26.619Z,20.25
2019-04-13T07:30:26.468Z,20.27
2019-04-13T07:31:26.587Z,20.27
2019-04-13T07:32:26.480Z,20.29
2019-04-13T07:33:26.478Z,20.3
2019-04-13T07:34:26.555Z,20.29
2019-04-13T07:35:26.723Z,20.31
2019-04-13T07:36:26.591Z,20.29
2019-04-13T07:37:37.472Z,20.33
2019-04-13T07:38:26.567Z,20.33
2019-04-13T07:39:26.447Z,20.32
2019-04-13T07:40:26.484Z,20.33
2019-04-13T07:41:26.557Z,20.33
2019-04-13T07:42:26.343Z,20.35
2019-04-13T07:43:26.376Z,20.34
2019-04-13T07:44:26.429Z,20.34
2019-04-13T07:45:26.493Z,20.36
2019-04-13T07:46:26.420Z,20.37
2019-04-13T07:47:26.475Z,20.36
2019-04-13T07:48:26.589Z,20.37
2019-04-13T07:49:26.599Z,20.39
2019-04-13T07:50:26.655Z,20.39
2019-04-13T07:51:26.460Z,20.37
2019-04-13T07:52:30.024Z,20.42
2019-04-13T07:53:26.647Z,20.41
2019-04-13T07:54:26.665Z,20.4
2019-04-13T07:55:26.599Z,20.43
2019-04-13T07:56:26.322Z,20.42
2019-04-13T07:57:26.313Z,20.45
2019-04-13T07:58:26.337Z,20.44
2019-04-13T07:59:26.453Z,20.45
2019-04-13T08:00:28.826Z,20.44
2019-04-13T08:01:26.385Z,20.46
2019-04-13T08:02:26.410Z,20.45
2019-04-13T08:03:26.481Z,20.46
2019-04-13T08:04:26.401Z,20.45
2019-04-13T08:05:26.755Z,20.46
2019-04-13T08:06:26.700Z,20.48
2019-04-13T08:07:26.450Z,20.48
2019-04-13T08:08:46.166Z,20.47
2019-04-13T08:09:26.443Z,20.47
2019-04-13T08:10:26.575Z,20.49
2019-04-13T08:11:26.645Z,20.48
2019-04-13T08:12:26.524Z,20.51
2019-04-13T08:13:26.650Z,20.47
2019-04-13T08:14:26.627Z,20.47
2019-04-13T08:15:26.325Z,20.5
2019-04-13T08:16:26.341Z,20.5
2019-04-13T08:17:26.373Z,20.49
2019-04-13T08:18:26.348Z,20.51
2019-04-13T08:19:26.376Z,20.49
2019-04-13T08:20:34.685Z,20.51
2019-04-13T08:21:26.429Z,20.51
2019-04-13T08:22:26.555Z,20.5
2019-04-13T08:23:26.415Z,20.53
2019-04-13T08:24:26.598Z,20.5
2019-04-13T08:25:26.531Z,20.54
2019-04-13T08:26:26.861Z,20.54
2019-04-13T08:27:26.694Z,20.54
2019-04-13T08:28:26.501Z,20.56
2019-04-13T08:29:26.531Z,20.53
2019-04-13T08:30:26.539Z,20.53
2019-04-13T08:31:27.064Z,20.56
2019-04-13T08:32:30.026Z,20.55
2019-04-13T08:33:26.287Z,20.55
2019-04-13T08:34:26.297Z,20.57
2019-04-13T08:35:26.506Z,20.55
2019-04-13T08:36:26.343Z,20.57
2019-04-13T08:37:26.526Z,20.58
2019-04-13T08:38:29.058Z,20.6
2019-04-13T08:39:27.222Z,20.59
2019-04-13T08:40:26.351Z,20.57
2019-04-13T08:41:26.552Z,20.58
2019-04-13T08:42:28.122Z,20.6
2019-04-13T08:43:27.220Z,20.6
2019-04-13T08:44:26.552Z,20.59
2019-04-13T08:45:26.503Z,20.61
2019-04-13T08:46:28.670Z,20.61
2019-04-13T08:47:26.558Z,20.61
2019-04-13T08:48:26.495Z,20.61
2019-04-13T08:49:26.535Z,20.62
2019-04-13T08:50:26.523Z,20.63
2019-04-13T08:51:26.432Z,20.61
2019-04-13T08:52:26.328Z,20.61
2019-04-13T08:53:26.466Z,20.62
2019-04-13T08:54:26.309Z,20.62
2019-04-13T08:55:26.456Z,20.61
2019-04-13T08:56:31.255Z,20.61
2019-04-13T08:57:26.413Z,20.62
2019-04-13T08:58:26.539Z,20.61
2019-04-13T08:59:27.102Z,20.62
2019-04-13T09:00:26.427Z,20.62
2019-04-13T09:01:26.606Z,20.6
2019-04-13T09:02:26.454Z,20.63
2019-04-13T09:03:26.477Z,20.61
2019-04-13T09:04:26.611Z,20.62
2019-04-13T09:05:26.540Z,20.61
2019-04-13T09:06:26.671Z,20.61
2019-04-13T09:07:26.623Z,20.61
2019-04-13T09:08:33.620Z,20.6
2019-04-13T09:09:27.742Z,20.61
2019-04-13T09:10:33.410Z,20.6
2019-04-13T09:11:26.936Z,20.62
2019-04-13T09:12:27.399Z,20.62
2019-04-13T09:13:36.153Z,20.62
2019-04-13T09:14:35.180Z,20.62
2019-04-13T09:15:26.533Z,20.63
2019-04-13T09:16:33.760Z,20.63
2019-04-13T09:17:35.100Z,20.63
2019-04-13T09:18:31.726Z,20.64
2019-04-13T09:19:26.395Z,20.63
2019-04-13T09:20:26.432Z,20.63
2019-04-13T09:21:27.206Z,20.65
2019-04-13T09:22:27.120Z,20.64
2019-04-13T09:23:27.619Z,20.65
2019-04-13T09:24:26.529Z,20.65
2019-04-13T09:25:29.283Z,20.66
2019-04-13T09:26:26.487Z,20.65
2019-04-13T09:27:26.487Z,20.68
2019-04-13T09:28:26.576Z,20.66
2019-04-13T09:29:26.376Z,20.68
2019-04-13T09:30:26.308Z,20.68
2019-04-13T09:31:26.317Z,20.68
2019-04-13T09:32:31.590Z,20.66
2019-04-13T09:33:26.785Z,20.68
2019-04-13T09:34:35.137Z,20.71
2019-04-13T09:35:26.552Z,20.7
2019-04-13T09:36:29.657Z,20.72
2019-04-13T09:37:26.486Z,20.72
2019-04-13T09:38:26.435Z,20.72
2019-04-13T09:39:26.459Z,20.72
2019-04-13T09:40:31.413Z,20.71
2019-04-13T09:41:26.609Z,20.72
2019-04-13T09:42:26.644Z,20.73
2019-04-13T09:43:26.677Z,20.74
2019-04-13T09:44:32.550Z,20.75
2019-04-13T09:45:26.483Z,20.75
2019-04-13T09:46:26.623Z,20.74
2019-04-13T09:47:26.371Z,20.75
2019-04-13T09:48:26.297Z,20.77
2019-04-13T09:49:26.644Z,20.75
2019-04-13T09:50:26.467Z,20.76
2019-04-13T09:51:26.335Z,20.77
2019-04-13T09:52:32.333Z,20.78
2019-04-13T09:53:26.342Z,20.8
2019-04-13T09:54:26.402Z,20.81
2019-04-13T09:55:26.545Z,20.8
2019-04-13T09:56:37.941Z,20.83
2019-04-13T09:57:30.184Z,20.81
2019-04-13T09:58:26.417Z,20.85
2019-04-13T09:59:26.605Z,20.86
2019-04-13T10:00:28.588Z,20.85
2019-04-13T10:01:26.448Z,20.87
2019-04-13T10:02:26.504Z,20.89
2019-04-13T10:03:26.474Z,20.88
2019-04-13T10:04:26.830Z,20.9
2019-04-13T10:05:30.185Z,20.89
2019-04-13T10:06:26.501Z,20.9
2019-04-13T10:07:26.406Z,20.93
2019-04-13T10:08:26.326Z,20.93
2019-04-13T10:09:26.266Z,20.94
2019-04-13T10:10:26.323Z,20.93
2019-04-13T10:11:26.482Z,20.95
2019-04-13T10:12:26.461Z,20.95
2019-04-13T10:13:26.352Z,20.96
2019-04-13T10:14:26.545Z,20.98
2019-04-13T10:15:26.522Z,20.98
2019-04-13T10:16:26.408Z,20.99
2019-04-13T10:17:28.215Z,21
2019-04-13T10:18:26.895Z,21.02
2019-04-13T10:19:26.465Z,21.02
2019-04-13T10:20:26.346Z,21.01
2019-04-13T10:21:26.483Z,21.03
2019-04-13T10:22:26.458Z,21.03
2019-04-13T10:23:30.779Z,21.01
2019-04-13T10:24:26.288Z,21.03
2019-04-13T10:25:26.330Z,21.04
2019-04-13T10:26:26.309Z,21.04
2019-04-13T10:27:26.450Z,21.07
2019-04-13T10:28:26.317Z,21.07
2019-04-13T10:29:26.431Z,21.08
2019-04-13T10:30:26.403Z,21.07
2019-04-13T10:31:27.717Z,21.09
2019-04-13T10:32:31.834Z,21.1
2019-04-13T10:33:26.456Z,21.13
2019-04-13T10:34:26.416Z,21.1
2019-04-13T10:35:26.503Z,21.13
2019-04-13T10:36:26.544Z,21.11
2019-04-13T10:37:26.619Z,21.11
2019-04-13T10:38:26.923Z,21.15
2019-04-13T10:39:26.498Z,21.11
2019-04-13T10:40:26.434Z,21.15
2019-04-13T10:41:26.424Z,21.17
2019-04-13T10:42:26.398Z,21.16
2019-04-13T10:43:26.493Z,21.17
2019-04-13T10:44:26.375Z,21.19
2019-04-13T10:45:26.388Z,21.18
2019-04-13T10:46:26.379Z,21.18
2019-04-13T10:47:29.439Z,21.19
2019-04-13T10:48:26.445Z,21.21
2019-04-13T10:49:26.506Z,21.21
2019-04-13T10:50:26.446Z,21.21
2019-04-13T10:51:26.628Z,21.21
2019-04-13T10:52:26.891Z,21.22
2019-04-13T10:53:26.496Z,21.23
2019-04-13T10:54:26.626Z,21.23
2019-04-13T10:55:26.456Z,21.23
2019-04-13T10:56:26.279Z,21.25
2019-04-13T10:57:26.236Z,21.25
2019-04-13T10:58:26.252Z,21.25
2019-04-13T10:59:26.558Z,21.29
2019-04-13T11:00:26.328Z,21.27
2019-04-13T11:01:26.258Z,21.25
2019-04-13T11:02:26.466Z,21.25
2019-04-13T11:03:26.374Z,21.25
2019-04-13T11:04:26.319Z,21.27
2019-04-13T11:05:26.379Z,21.25
2019-04-13T11:06:26.366Z,21.24
2019-04-13T11:07:26.513Z,21.24
2019-04-13T11:08:26.546Z,21.23
2019-04-13T11:09:29.810Z,21.23
2019-04-13T11:10:26.401Z,21.23
2019-04-13T11:11:26.532Z,21.22
2019-04-13T11:12:26.494Z,21.23
2019-04-13T11:13:26.480Z,21.2
2019-04-13T11:14:26.294Z,21.22
2019-04-13T11:15:26.256Z,21.21
2019-04-13T11:16:26.377Z,21.21
2019-04-13T11:17:29.980Z,21.2
2019-04-13T11:18:26.306Z,21.19
2019-04-13T11:19:26.391Z,21.21
2019-04-13T11:20:26.343Z,21.19
2019-04-13T11:21:26.804Z,21.19
2019-04-13T11:22:26.535Z,21.18
2019-04-13T11:23:46.247Z,21.18
2019-04-13T11:24:26.392Z,21.19
2019-04-13T11:25:26.410Z,21.2
2019-04-13T11:26:26.441Z,21.19
2019-04-13T11:27:26.508Z,21.19
2019-04-13T11:28:26.450Z,21.19
2019-04-13T11:29:26.573Z,21.18
2019-04-13T11:30:26.532Z,21.2
2019-04-13T11:31:26.531Z,21.16
2019-04-13T11:32:26.561Z,21.15
2019-04-13T11:33:26.327Z,21.16
2019-04-13T11:34:30.391Z,21.16
2019-04-13T11:35:26.304Z,21.14
2019-04-13T11:36:26.295Z,21.13
2019-04-13T11:37:26.300Z,21.15
2019-04-13T11:38:26.419Z,21.16
2019-04-13T11:39:41.751Z,21.13
2019-04-13T11:40:26.377Z,21.13
2019-04-13T11:41:26.332Z,21.13
2019-04-13T11:42:26.429Z,21.14
2019-04-13T11:43:26.418Z,21.13
2019-04-13T11:44:26.409Z,21.14
2019-04-13T11:45:26.813Z,21.13
2019-04-13T11:46:30.071Z,21.14
2019-04-13T11:47:26.370Z,21.11
2019-04-13T11:48:26.426Z,21.11
2019-04-13T11:49:26.560Z,21.1
2019-04-13T11:50:30.688Z,21.1
2019-04-13T11:51:26.249Z,21.11
2019-04-13T11:52:26.270Z,21.11
2019-04-13T11:53:26.312Z,21.11
2019-04-13T11:54:28.499Z,21.1
2019-04-13T11:55:34.887Z,21.14
2019-04-13T11:56:29.225Z,21.09
2019-04-13T11:57:26.436Z,21.11
2019-04-13T11:58:26.470Z,21.14
2019-04-13T11:59:26.412Z,21.1
2019-04-13T12:00:26.447Z,21.1
2019-04-13T12:01:26.441Z,21.1
2019-04-13T12:02:27.154Z,21.11
2019-04-13T12:03:26.437Z,21.11
2019-04-13T12:04:30.505Z,21.11
2019-04-13T12:05:26.441Z,21.11
2019-04-13T12:06:26.414Z,21.13
2019-04-13T12:07:26.455Z,21.13
2019-04-13T12:08:29.208Z,21.15
2019-04-13T12:09:50.208Z,21.16
2019-04-13T12:10:26.272Z,21.16
2019-04-13T12:11:26.444Z,21.17
2019-04-13T12:12:26.293Z,21.18
2019-04-13T12:13:26.265Z,21.2
2019-04-13T12:14:26.293Z,21.18
2019-04-13T12:15:26.268Z,21.2
2019-04-13T12:16:26.272Z,21.21
2019-04-13T12:17:26.367Z,21.21
2019-04-13T12:18:26.331Z,21.21
2019-04-13T12:19:26.333Z,21.23
2019-04-13T12:20:26.430Z,21.24
2019-04-13T12:21:26.357Z,21.24
2019-04-13T12:22:26.385Z,21.27
2019-04-13T12:23:26.433Z,21.27
2019-04-13T12:24:26.488Z,21.28
2019-04-13T12:25:26.745Z,21.29
2019-04-13T12:26:26.496Z,21.29
2019-04-13T12:27:26.191Z,21.3
2019-04-13T12:28:26.236Z,21.32
2019-04-13T12:29:26.311Z,21.33
2019-04-13T12:30:26.319Z,21.33
2019-04-13T12:31:26.333Z,21.34
2019-04-13T12:32:26.300Z,21.36
2019-04-13T12:33:26.336Z,21.35
2019-04-13T12:34:26.285Z,21.36
2019-04-13T12:35:26.469Z,21.37
2019-04-13T12:36:26.343Z,21.39
2019-04-13T12:37:26.401Z,21.37
2019-04-13T12:38:26.320Z,21.39
2019-04-13T12:39:26.394Z,21.42
2019-04-13T12:40:26.427Z,21.43
2019-04-13T12:41:26.501Z,21.4
2019-04-13T12:42:26.485Z,21.43
2019-04-13T12:43:26.419Z,21.44
2019-04-13T12:44:38.589Z,21.44
2019-04-13T12:45:26.442Z,21.44
2019-04-13T12:46:26.458Z,21.46
2019-04-13T12:47:26.471Z,21.46
2019-04-13T12:48:26.362Z,21.47
2019-04-13T12:49:26.213Z,21.46
2019-04-13T12:50:26.280Z,21.46
2019-04-13T12:51:26.354Z,21.48
2019-04-13T12:52:26.257Z,21.47
2019-04-13T12:53:26.312Z,21.46
2019-04-13T12:54:29.723Z,21.47
2019-04-13T12:55:26.306Z,21.46